createdAt,value
2019-04-03T00:01:04.722Z,53.91
2019-04-03T00:03:34.596Z,51.25
2019-04-03T00:06:05.499Z,50.73
2019-04-03T00:08:36.683Z,49.26
2019-04-03T00:11:08.786Z,50.09
2019-04-03T00:13:37.706Z,49.97
2019-04-03T00:16:09.342Z,49.76
2019-04-03T00:18:38.732Z,50.35
2019-04-03T00:21:09.042Z,50.63
2019-04-03T00:23:38.564Z,49.81
2019-04-03T00:26:08.962Z,51.01
2019-04-03T00:28:39.368Z,50.60
2019-04-03T00:31:08.100Z,51.51
2019-04-03T00:33:40.594Z,50.07
2019-04-03T00:36:12.265Z,50.63
2019-04-03T00:38:41.834Z,50.61
2019-04-03T00:41:12.422Z,50.66
2019-04-03T00:43:44.338Z,51.08
2019-04-03T00:46:13.777Z,51.65
2019-04-03T00:48:44.178Z,51.80
2019-04-03T00:51:13.701Z,51.81
2019-04-03T00:53:44.270Z,52.29
2019-04-03T00:56:14.661Z,51.84
2019-04-03T00:58:44.695Z,52.02
2019-04-03T01:01:14.575Z,53.15
2019-04-03T01:03:45.159Z,53.08
2019-04-03T01:06:14.507Z,52.99
2019-04-03T01:08:44.125Z,53.21
2019-04-03T01:11:14.590Z,53.29
2019-04-03T01:13:43.999Z,53.68
2019-04-03T01:16:13.322Z,54.02
2019-04-03T01:18:42.149Z,54.28
2019-04-03T01:21:10.988Z,54.80
2019-04-03T01:23:40.513Z,54.35
2019-04-03T01:26:10.342Z,54.74
2019-04-03T01:28:41.977Z,54.86
2019-04-03T01:31:14.907Z,54.77
2019-04-03T01:33:47.152Z,55.04
2019-04-03T01:36:19.185Z,55.57
2019-04-03T01:38:50.289Z,55.73
2019-04-03T01:41:21.220Z,55.87
2019-04-03T01:43:53.382Z,56.01
2019-04-03T01:46:23.223Z,56.06
2019-04-03T01:48:52.595Z,55.96
2019-04-03T01:51:26.129Z,56.33
2019-04-03T01:53:55.452Z,56.34
2019-04-03T01:56:26.286Z,56.64
2019-04-03T01:58:57.428Z,57.31
2019-04-03T02:01:27.832Z,57.40
2019-04-03T02:03:58.231Z,57.88
2019-04-03T02:06:30.176Z,58.01
2019-04-03T02:08:59.555Z,57.61
2019-04-03T02:11:29.968Z,57.57
2019-04-03T02:14:00.512Z,57.55
2019-04-03T02:16:29.986Z,57.45
2019-04-03T02:19:00.340Z,57.95
2019-04-03T02:21:32.629Z,57.96
2019-04-03T02:24:02.373Z,58.56
2019-04-03T02:26:32.710Z,59.12
2019-04-03T02:29:04.440Z,61.70
2019-04-03T02:31:33.565Z,61.67
2019-04-03T02:34:04.139Z,61.52
2019-04-03T02:36:34.486Z,61.88
2019-04-03T02:39:03.856Z,62.83
2019-04-03T02:41:36.504Z,62.98
2019-04-03T02:44:06.639Z,63.70
2019-04-03T02:46:37.121Z,64.29
2019-04-03T02:49:10.757Z,64.02
2019-04-03T02:51:42.797Z,63.72
2019-04-03T02:54:20.898Z,64.22
2019-04-03T02:56:51.582Z,63.73
2019-04-03T02:59:21.019Z,62.35
2019-04-03T03:01:51.652Z,61.34
2019-04-03T03:04:21.926Z,60.70
2019-04-03T03:06:53.031Z,61.34
2019-04-03T03:09:22.839Z,60.55
2019-04-03T03:11:56.343Z,60.74
2019-04-03T03:14:26.565Z,62.19
2019-04-03T03:16:57.008Z,62.74
2019-04-03T03:19:26.523Z,63.29
2019-04-03T03:22:00.683Z,62.57
2019-04-03T03:24:35.467Z,62.53
2019-04-03T03:27:08.056Z,63.31
2019-04-03T03:29:37.650Z,63.35
2019-04-03T03:32:15.508Z,62.58
2019-04-03T03:34:55.075Z,62.13
2019-04-03T03:37:12.709Z,62.52
2019-04-03T03:39:43.580Z,62.95
2019-04-03T03:42:12.741Z,63.60
2019-04-03T03:44:45.619Z,64.32
2019-04-03T03:47:13.825Z,63.51
2019-04-03T03:49:48.519Z,63.84
2019-04-03T03:52:17.743Z,64.79
2019-04-03T03:54:51.098Z,64.94
2019-04-03T03:57:20.463Z,63.83
2019-04-03T03:59:52.820Z,63.27
2019-04-03T04:02:23.626Z,63.16
2019-04-03T04:04:54.070Z,63.06
2019-04-03T04:07:25.085Z,63.73
2019-04-03T04:09:55.798Z,63.64
2019-04-03T04:12:26.502Z,64.62
2019-04-03T04:14:57.572Z,64.22
2019-04-03T04:17:30.025Z,63.99
2019-04-03T04:20:05.153Z,63.34
2019-04-03T04:22:34.950Z,63.03
2019-04-03T04:25:08.874Z,62.99
2019-04-03T04:27:39.543Z,63.40
2019-04-03T04:30:12.075Z,62.76
2019-04-03T04:32:42.385Z,63.60
2019-04-03T04:35:14.988Z,62.47
2019-04-03T04:37:43.829Z,62.93
2019-04-03T04:40:13.309Z,63.12
2019-04-03T04:42:43.665Z,63.82
2019-04-03T04:45:13.267Z,63.04
2019-04-03T04:47:45.537Z,64.32
2019-04-03T04:50:25.765Z,65.29
2019-04-03T04:52:58.082Z,64.78
2019-04-03T04:55:30.401Z,65.42
2019-04-03T04:57:58.727Z,64.63
2019-04-03T05:00:29.989Z,64.33
2019-04-03T05:03:01.054Z,64.59
2019-04-03T05:05:31.311Z,65.26
2019-04-03T05:08:02.620Z,64.41
2019-04-03T05:10:34.646Z,64.14
2019-04-03T05:13:04.449Z,63.86
2019-04-03T05:15:35.206Z,63.97
2019-04-03T05:18:07.067Z,63.32
2019-04-03T05:20:36.509Z,64.03
2019-04-03T05:23:06.740Z,64.01
2019-04-03T05:25:37.176Z,63.91
2019-04-03T05:28:08.486Z,63.78
2019-04-03T05:30:39.358Z,63.57
2019-04-03T05:33:11.447Z,63.43
2019-04-03T05:35:42.181Z,63.53
2019-04-03T05:38:12.571Z,63.15
2019-04-03T05:40:43.098Z,63.22
2019-04-03T05:43:14.965Z,63.12
2019-04-03T05:45:44.356Z,63.34
2019-04-03T05:48:17.833Z,63.69
2019-04-03T05:50:45.149Z,63.53
2019-04-03T05:53:15.959Z,63.74
2019-04-03T05:55:45.348Z,62.74
2019-04-03T05:58:16.689Z,62.70
2019-04-03T06:00:47.119Z,63.69
2019-04-03T06:03:17.976Z,63.24
2019-04-03T06:05:47.613Z,62.95
2019-04-03T06:08:19.954Z,62.29
2019-04-03T06:10:50.066Z,60.48
2019-04-03T06:13:20.441Z,62.35
2019-04-03T06:15:52.764Z,62.39
2019-04-03T06:18:22.274Z,62.72
2019-04-03T06:20:51.990Z,63.16
2019-04-03T06:23:22.056Z,63.10
2019-04-03T06:25:52.620Z,62.58
2019-04-03T06:28:22.252Z,62.47
2019-04-03T06:30:55.594Z,62.15
2019-04-03T06:33:26.295Z,61.61
2019-04-03T06:35:56.676Z,61.01
2019-04-03T06:38:27.057Z,61.03
2019-04-03T06:40:57.512Z,60.08
2019-04-03T06:43:29.280Z,60.19
2019-04-03T06:45:58.429Z,59.72
2019-04-03T06:48:28.756Z,59.55
2019-04-03T06:50:58.235Z,59.43
2019-04-03T06:53:28.768Z,59.56
2019-04-03T06:56:00.990Z,59.06
2019-04-03T06:58:38.145Z,58.56
2019-04-03T07:01:02.843Z,57.08
2019-04-03T07:03:34.385Z,56.56
2019-04-03T07:06:06.934Z,56.51
2019-04-03T07:08:39.685Z,55.48
2019-04-03T07:11:08.723Z,53.09
2019-04-03T07:13:39.994Z,52.58
2019-04-03T07:16:10.395Z,51.82
2019-04-03T07:18:40.152Z,48.77
2019-04-03T07:21:10.582Z,47.27
2019-04-03T07:23:41.243Z,46.54
2019-04-03T07:26:11.085Z,47.24
2019-04-03T07:28:41.495Z,48.31
2019-04-03T07:31:13.136Z,48.07
2019-04-03T07:33:43.549Z,47.26
2019-04-03T07:36:14.071Z,47.76
2019-04-03T07:38:43.482Z,48.32
2019-04-03T07:41:14.051Z,46.66
2019-04-03T07:43:43.623Z,44.10
2019-04-03T07:46:14.029Z,41.28
2019-04-03T07:48:43.572Z,38.38
2019-04-03T07:51:13.822Z,36.50
2019-04-03T07:53:44.183Z,39.04
2019-04-03T07:56:13.591Z,37.84
2019-04-03T07:58:43.967Z,38.15
2019-04-03T08:01:14.142Z,38.51
2019-04-03T08:03:44.790Z,40.72
2019-04-03T08:06:15.474Z,41.36
2019-04-03T08:09:06.926Z,41.60
2019-04-03T08:11:25.905Z,39.49
2019-04-03T08:13:57.329Z,39.05
2019-04-03T08:16:27.861Z,38.66
2019-04-03T08:18:57.267Z,37.42
2019-04-03T08:21:27.999Z,35.87
2019-04-03T08:23:58.873Z,33.19
2019-04-03T08:26:30.630Z,31.71
2019-04-03T08:29:01.786Z,30.04
2019-04-03T08:31:31.873Z,30.27
2019-04-03T08:34:14.651Z,29.23
2019-04-03T08:36:38.344Z,31.09
2019-04-03T08:39:08.546Z,29.91
2019-04-03T08:41:38.929Z,29.74
2019-04-03T08:44:09.248Z,31.75
2019-04-03T08:46:42.979Z,30.08
2019-04-03T08:49:11.924Z,32.49
2019-04-03T08:51:42.385Z,31.98
2019-04-03T08:54:11.778Z,30.89
2019-04-03T08:56:42.290Z,30.60
2019-04-03T08:59:13.554Z,31.32
2019-04-03T09:01:45.984Z,32.48
2019-04-03T09:04:18.089Z,31.69
2019-04-03T09:06:48.825Z,31.90
2019-04-03T09:09:18.414Z,29.97
2019-04-03T09:11:47.968Z,29.91
2019-04-03T09:14:19.705Z,30.96
2019-04-03T09:16:49.497Z,32.83
2019-04-03T09:19:18.990Z,31.20
2019-04-03T09:21:51.394Z,29.67
2019-04-03T09:24:22.353Z,29.76
2019-04-03T09:26:51.972Z,29.91
2019-04-03T09:29:22.347Z,29.03
2019-04-03T09:31:55.800Z,31.09
2019-04-03T09:34:25.100Z,30.86
2019-04-03T09:36:55.566Z,30.80
2019-04-03T09:39:26.170Z,33.12
2019-04-03T09:41:56.528Z,35.20
2019-04-03T09:44:26.106Z,33.91
2019-04-03T09:46:56.690Z,34.36
2019-04-03T09:49:26.143Z,33.54
2019-04-03T09:51:55.711Z,35.10
2019-04-03T09:54:27.520Z,37.21
2019-04-03T09:57:03.809Z,37.21
2019-04-03T09:59:28.795Z,35.30
2019-04-03T10:01:58.304Z,35.46
2019-04-03T10:04:28.894Z,35.46
2019-04-03T10:06:59.834Z,34.79
2019-04-03T10:09:30.045Z,36.07
2019-04-03T10:12:01.587Z,35.59
2019-04-03T10:14:31.060Z,35.60
2019-04-03T10:17:01.432Z,37.01
2019-04-03T10:19:30.802Z,36.78
2019-04-03T10:22:00.905Z,36.67
2019-04-03T10:24:31.093Z,37.75
2019-04-03T10:27:01.760Z,36.76
2019-04-03T10:29:31.315Z,36.42
2019-04-03T10:32:01.666Z,37.58
2019-04-03T10:34:34.831Z,38.52
2019-04-03T10:37:04.872Z,38.46
2019-04-03T10:39:40.021Z,38.22
2019-04-03T10:42:10.138Z,38.12
2019-04-03T10:44:40.689Z,38.16
2019-04-03T10:47:11.273Z,38.89
2019-04-03T10:49:41.635Z,38.35
2019-04-03T10:52:14.474Z,37.73
2019-04-03T10:54:45.154Z,37.49
2019-04-03T10:57:14.155Z,38.87
2019-04-03T10:59:44.974Z,38.10
2019-04-03T11:02:15.619Z,38.58
2019-04-03T11:04:45.453Z,38.57
2019-04-03T11:07:14.887Z,38.43
2019-04-03T11:09:44.531Z,37.29
2019-04-03T11:12:14.045Z,37.56
2019-04-03T11:14:46.036Z,37.64
2019-04-03T11:17:15.995Z,37.16
2019-04-03T11:19:47.629Z,37.82
2019-04-03T11:22:19.123Z,37.12
2019-04-03T11:24:49.766Z,37.08
2019-04-03T11:27:23.090Z,36.92
2019-04-03T11:29:52.765Z,35.35
2019-04-03T11:32:23.712Z,36.90
2019-04-03T11:34:54.813Z,35.33
2019-04-03T11:37:25.134Z,37.47
2019-04-03T11:40:02.449Z,35.86
2019-04-03T11:42:29.196Z,34.96
2019-04-03T11:44:58.406Z,36.75
2019-04-03T11:47:27.908Z,33.78
2019-04-03T11:49:58.337Z,33.78
2019-04-03T11:52:27.755Z,33.93
2019-04-03T11:54:57.113Z,33.97
2019-04-03T11:57:29.768Z,33.53
2019-04-03T11:59:59.166Z,33.20
2019-04-03T12:02:29.740Z,33.63
2019-04-03T12:04:59.956Z,33.63
2019-04-03T12:07:28.851Z,33.88
2019-04-03T12:09:58.417Z,33.77
2019-04-03T12:12:28.842Z,34.19
2019-04-03T12:14:59.265Z,33.83
2019-04-03T12:17:30.488Z,33.83
2019-04-03T12:20:01.328Z,34.67
2019-04-03T12:22:30.728Z,34.14
2019-04-03T12:25:01.092Z,34.30
2019-04-03T12:27:31.621Z,33.50
2019-04-03T12:30:01.981Z,33.50
2019-04-03T12:32:39.626Z,33.54
2019-04-03T12:35:02.730Z,34.24
2019-04-03T12:37:32.329Z,34.67
2019-04-03T12:40:03.606Z,34.67
2019-04-03T12:42:34.045Z,33.20
2019-04-03T12:45:03.440Z,32.02
2019-04-03T12:47:33.923Z,31.79
2019-04-03T12:50:04.340Z,31.36
2019-04-03T12:52:33.777Z,31.36
2019-04-03T12:55:03.175Z,30.32
2019-04-03T12:57:33.777Z,30.97
2019-04-03T13:00:04.521Z,29.31
2019-04-03T13:02:36.330Z,28.64
2019-04-03T13:05:10.192Z,29.23
2019-04-03T13:07:39.675Z,29.87
2019-04-03T13:10:12.186Z,29.27
2019-04-03T13:12:42.579Z,28.44
2019-04-03T13:15:12.682Z,28.18
2019-04-03T13:17:44.952Z,28.51
2019-04-03T13:20:15.747Z,29.18
2019-04-03T13:22:47.766Z,29.58
2019-04-03T13:25:20.622Z,30.49
2019-04-03T13:27:58.368Z,30.15
2019-04-03T13:30:30.253Z,29.94
2019-04-03T13:33:05.178Z,30.76
2019-04-03T13:35:30.874Z,30.76
2019-04-03T13:38:02.995Z,29.63
2019-04-03T13:40:36.420Z,29.40
2019-04-03T13:43:06.112Z,29.24
2019-04-03T13:45:38.932Z,28.92
2019-04-03T13:48:13.412Z,28.92
2019-04-03T13:50:45.474Z,29.22
2019-04-03T13:53:18.391Z,30.55
2019-04-03T13:55:50.103Z,29.61
2019-04-03T13:58:22.547Z,29.28
2019-04-03T14:01:01.004Z,28.46
2019-04-03T14:03:28.019Z,28.46
2019-04-03T14:05:58.261Z,28.36
2019-04-03T14:08:27.744Z,29.09
2019-04-03T14:10:58.785Z,29.39
2019-04-03T14:13:28.820Z,29.39
2019-04-03T14:15:59.475Z,29.47
2019-04-03T14:18:29.477Z,28.82
2019-04-03T14:21:00.173Z,29.22
2019-04-03T14:23:29.655Z,29.22
2019-04-03T14:26:06.127Z,29.21
2019-04-03T14:28:29.992Z,29.31
2019-04-03T14:31:00.565Z,29.83
2019-04-03T14:33:41.649Z,28.69
2019-04-03T14:36:01.241Z,29.16
2019-04-03T14:38:32.397Z,28.87
2019-04-03T14:41:01.158Z,28.03
2019-04-03T14:43:33.298Z,28.03
2019-04-03T14:46:02.076Z,28.22
2019-04-03T14:48:32.604Z,28.22
2019-04-03T14:51:02.156Z,28.49
2019-04-03T14:53:31.595Z,28.79
2019-04-03T14:56:01.535Z,28.79
2019-04-03T14:58:34.132Z,28.62
2019-04-03T15:01:03.539Z,29.00
2019-04-03T15:03:34.528Z,28.96
2019-04-03T15:06:05.833Z,29.18
2019-04-03T15:08:36.952Z,29.00
2019-04-03T15:11:09.007Z,28.18
2019-04-03T15:13:39.906Z,28.54
2019-04-03T15:16:10.346Z,29.15
2019-04-03T15:18:42.150Z,28.48
2019-04-03T15:21:11.093Z,28.55
2019-04-03T15:23:42.016Z,29.05
2019-04-03T15:26:11.568Z,28.73
2019-04-03T15:28:41.962Z,28.17
2019-04-03T15:31:14.321Z,28.27
2019-04-03T15:33:43.657Z,28.27
2019-04-03T15:36:13.484Z,28.84
2019-04-03T15:38:45.649Z,28.12
2019-04-03T15:41:16.694Z,27.95
2019-04-03T15:43:49.623Z,27.45
2019-04-03T15:46:21.086Z,28.15
2019-04-03T15:48:55.152Z,28.42
2019-04-03T15:51:25.808Z,27.89
2019-04-03T15:53:57.033Z,28.13
2019-04-03T15:56:29.002Z,28.25
2019-04-03T15:58:59.226Z,28.04
2019-04-03T16:01:31.100Z,27.91
2019-04-03T16:04:01.360Z,27.91
2019-04-03T16:06:33.441Z,28.41
2019-04-03T16:09:03.774Z,28.20
2019-04-03T16:11:34.662Z,28.73
2019-04-03T16:14:06.437Z,28.17
2019-04-03T16:16:38.078Z,28.29
2019-04-03T16:19:11.396Z,28.75
2019-04-03T16:21:40.733Z,28.75
2019-04-03T16:24:13.139Z,29.24
2019-04-03T16:26:43.881Z,29.40
2019-04-03T16:29:13.065Z,29.55
2019-04-03T16:31:43.885Z,29.71
2019-04-03T16:34:14.442Z,30.18
2019-04-03T16:36:47.916Z,30.13
2019-04-03T16:39:17.340Z,30.77
2019-04-03T16:41:48.492Z,30.93
2019-04-03T16:44:20.516Z,31.85
2019-04-03T16:46:50.800Z,32.12
2019-04-03T16:49:22.779Z,31.33
2019-04-03T16:51:53.707Z,32.04
2019-04-03T16:54:24.174Z,32.03
2019-04-03T16:56:56.357Z,32.53
2019-04-03T16:59:25.811Z,32.72
2019-04-03T17:01:56.839Z,33.12
2019-04-03T17:04:28.611Z,33.18
2019-04-03T17:06:57.487Z,33.31
2019-04-03T17:09:31.746Z,33.55
2019-04-03T17:12:00.802Z,34.18
2019-04-03T17:14:31.894Z,33.98
2019-04-03T17:17:03.525Z,34.21
2019-04-03T17:19:34.098Z,34.21
2019-04-03T17:22:05.810Z,34.53
2019-04-03T17:24:44.046Z,34.70
2019-04-03T17:27:09.262Z,34.76
2019-04-03T17:29:41.695Z,34.70
2019-04-03T17:32:12.450Z,35.15
2019-04-03T17:34:44.119Z,34.86
2019-04-03T17:37:12.600Z,35.15
2019-04-03T17:39:45.132Z,35.33
2019-04-03T17:42:17.632Z,35.45
2019-04-03T17:44:48.152Z,35.66
2019-04-03T17:47:19.243Z,35.65
2019-04-03T17:49:51.883Z,36.22
2019-04-03T17:52:25.414Z,36.15
2019-04-03T17:54:54.994Z,36.12
2019-04-03T17:57:24.393Z,36.37
2019-04-03T17:59:52.898Z,36.16
2019-04-03T18:02:22.820Z,36.00
2019-04-03T18:04:53.892Z,36.55
2019-04-03T18:07:24.210Z,37.01
2019-04-03T18:09:53.701Z,36.90
2019-04-03T18:12:26.047Z,36.95
2019-04-03T18:14:55.729Z,37.28
2019-04-03T18:17:27.637Z,37.55
2019-04-03T18:19:58.033Z,37.46
2019-04-03T18:22:27.400Z,37.50
2019-04-03T18:24:59.132Z,37.46
2019-04-03T18:27:29.517Z,37.98
2019-04-03T18:30:00.034Z,38.06
2019-04-03T18:32:31.190Z,37.77
2019-04-03T18:35:03.143Z,38.21
2019-04-03T18:37:32.707Z,37.75
2019-04-03T18:40:05.713Z,37.69
2019-04-03T18:42:35.653Z,37.99
2019-04-03T18:45:07.513Z,37.33
2019-04-03T18:47:41.608Z,38.30
2019-04-03T18:50:10.353Z,38.34
2019-04-03T18:52:41.845Z,38.52
2019-04-03T18:55:14.538Z,39.14
2019-04-03T18:57:45.983Z,38.98
2019-04-03T19:00:17.239Z,39.08
2019-04-03T19:02:46.645Z,39.31
2019-04-03T19:05:15.260Z,39.32
2019-04-03T19:07:45.880Z,39.74
2019-04-03T19:10:14.335Z,40.00
2019-04-03T19:12:46.075Z,40.26
2019-04-03T19:15:15.733Z,40.31
2019-04-03T19:17:45.279Z,40.26
2019-04-03T19:20:14.850Z,40.44
2019-04-03T19:22:44.312Z,41.00
2019-04-03T19:25:16.562Z,41.35
2019-04-03T19:27:46.304Z,41.11
2019-04-03T19:30:16.874Z,41.36
2019-04-03T19:32:46.290Z,41.46
2019-04-03T19:35:16.751Z,41.71
2019-04-03T19:37:46.102Z,41.86
2019-04-03T19:40:15.615Z,42.09
2019-04-03T19:42:45.048Z,41.89
2019-04-03T19:45:14.258Z,41.95
2019-04-03T19:47:45.838Z,42.00
2019-04-03T19:50:15.311Z,42.36
2019-04-03T19:52:45.671Z,42.69
2019-04-03T19:55:14.524Z,42.57
2019-04-03T19:57:47.089Z,42.83
2019-04-03T20:00:18.082Z,43.26
2019-04-03T20:02:48.485Z,43.57
2019-04-03T20:05:19.524Z,43.79
2019-04-03T20:07:48.431Z,44.06
2019-04-03T20:10:18.154Z,43.96
2019-04-03T20:12:47.765Z,44.25
2019-04-03T20:15:18.123Z,44.53
2019-04-03T20:17:49.050Z,44.43
2019-04-03T20:20:19.662Z,44.35
2019-04-03T20:22:49.130Z,44.56
2019-04-03T20:25:19.507Z,45.26
2019-04-03T20:27:52.135Z,45.20
2019-04-03T20:30:21.902Z,45.66
2019-04-03T20:32:52.506Z,45.94
2019-04-03T20:35:23.133Z,46.07
2019-04-03T20:37:56.660Z,45.93
2019-04-03T20:40:25.723Z,45.71
2019-04-03T20:42:55.094Z,45.69
2019-04-03T20:45:25.506Z,45.49
2019-04-03T20:47:57.386Z,45.65
2019-04-03T20:50:29.742Z,46.75
2019-04-03T20:53:00.150Z,46.74
2019-04-03T20:55:30.566Z,47.54
2019-04-03T20:58:01.197Z,47.51
2019-04-03T21:00:31.706Z,47.61
2019-04-03T21:03:01.145Z,47.78
2019-04-03T21:05:31.657Z,46.54
2019-04-03T21:08:02.076Z,46.55
2019-04-03T21:10:32.469Z,46.76
2019-04-03T21:13:01.953Z,47.14
2019-04-03T21:15:31.437Z,47.46
2019-04-03T21:18:01.845Z,50.19
2019-04-03T21:20:32.415Z,50.40
2019-04-03T21:23:03.749Z,49.99
2019-04-03T21:25:36.128Z,51.58
2019-04-03T21:28:06.520Z,52.03
2019-04-03T21:30:36.880Z,53.52
2019-04-03T21:33:08.657Z,55.28
2019-04-03T21:35:39.036Z,57.47
2019-04-03T21:38:11.516Z,58.35
2019-04-03T21:40:40.894Z,59.62
2019-04-03T21:43:10.247Z,61.22
2019-04-03T21:45:41.713Z,61.98
2019-04-03T21:48:13.547Z,62.96
2019-04-03T21:50:42.233Z,63.82
2019-04-03T21:53:12.624Z,64.49
2019-04-03T21:55:42.078Z,65.11
2019-04-03T21:58:12.469Z,65.64
2019-04-03T22:01:01.109Z,65.93
2019-04-03T22:03:31.408Z,65.74
2019-04-03T22:06:01.868Z,66.71
2019-04-03T22:08:32.264Z,66.98
2019-04-03T22:11:04.614Z,67.34
2019-04-03T22:13:34.872Z,67.63
2019-04-03T22:16:06.672Z,67.70
2019-04-03T22:18:35.558Z,67.87
2019-04-03T22:21:05.084Z,68.01
2019-04-03T22:23:35.930Z,67.99
2019-04-03T22:26:05.941Z,68.10
2019-04-03T22:28:35.357Z,68.01
2019-04-03T22:31:04.878Z,68.09
2019-04-03T22:33:34.271Z,67.92
2019-04-03T22:36:04.743Z,68.23
2019-04-03T22:38:37.275Z,68.52
2019-04-03T22:41:12.134Z,68.41
2019-04-03T22:43:39.928Z,68.60
2019-04-03T22:46:10.290Z,68.67
2019-04-03T22:48:40.527Z,69.04
2019-04-03T22:51:09.887Z,69.18
2019-04-03T22:53:39.861Z,68.63
2019-04-03T22:56:11.445Z,68.62
2019-04-03T22:58:40.796Z,68.82
2019-04-03T23:01:10.204Z,69.07
2019-04-03T23:03:42.542Z,68.93
2019-04-03T23:06:13.055Z,69.14
2019-04-03T23:08:42.509Z,68.84
2019-04-03T23:11:13.027Z,69.09
2019-04-03T23:13:43.433Z,68.73
2019-04-03T23:16:13.945Z,68.79
2019-04-03T23:18:46.584Z,69.31
2019-04-03T23:21:15.495Z,69.46
2019-04-03T23:23:44.976Z,69.47
2019-04-03T23:26:15.340Z,69.53
2019-04-03T23:28:45.678Z,69.55
2019-04-03T23:31:16.015Z,69.21
2019-04-03T23:33:47.554Z,69.06
2019-04-03T23:36:17.647Z,69.33
2019-04-03T23:38:47.983Z,69.08
2019-04-03T23:41:18.381Z,68.94
2019-04-03T23:43:49.939Z,68.73
2019-04-03T23:46:19.491Z,68.92
2019-04-03T23:48:49.500Z,69.00
2019-04-03T23:51:23.384Z,69.23
2019-04-03T23:53:50.076Z,68.88
2019-04-03T23:56:19.445Z,69.20
2019-04-03T23:58:50.545Z,69.34
